Time;durP1;ratioP1;P1;durP2;ratioP2;P2;SDS_P1;SDS_P2;PMS_P1;PMS_P2;Temp;Humidity;BMP_temperature;BMP_pressure;BME280_temperature;BME280_humidity;BME280_pressure;Samples;Min_cycle;Max_cycle;Signal;HPM_P1;HPM_P2
2024/01/04 00:01:57;;;;;;;21.90;5.15;;;10.00;99.90;;;;;;4211438;28;20083;-73
2024/01/04 00:04:00;;;;;;;22.58;5.45;;;10.00;99.90;;;;;;4214984;28;20059;-75
2024/01/04 00:06:02;;;;;;;18.55;4.40;;;10.00;99.90;;;;;;4215409;28;20052;-74
2024/01/04 00:08:05;;;;;;;16.40;4.13;;;9.90;99.90;;;;;;4215020;28;20418;-74
2024/01/04 00:10:08;;;;;;;20.30;5.00;;;9.90;99.90;;;;;;4215200;28;20047;-75
2024/01/04 00:12:12;;;;;;;19.67;3.75;;;9.90;99.90;;;;;;4215069;28;20056;-75
2024/01/04 00:14:14;;;;;;;19.77;4.32;;;9.90;99.90;;;;;;4214839;28;20091;-75
2024/01/04 00:16:16;;;;;;;18.83;4.78;;;9.90;99.90;;;;;;4214565;28;20044;-73
2024/01/04 00:18:18;;;;;;;16.42;4.97;;;9.80;99.90;;;;;;4214584;28;20046;-74
2024/01/04 00:20:24;;;;;;;16.63;4.28;;;9.90;99.90;;;;;;4214559;28;20074;-73
2024/01/04 00:22:27;;;;;;;21.08;4.50;;;9.90;99.90;;;;;;4214401;28;20055;-73
2024/01/04 00:24:29;;;;;;;15.85;3.75;;;9.80;99.90;;;;;;4214502;28;20131;-73
2024/01/04 00:26:31;;;;;;;22.92;5.13;;;9.80;99.90;;;;;;4214537;28;20122;-73
2024/01/04 00:28:34;;;;;;;19.83;4.25;;;9.80;99.90;;;;;;4214719;28;20051;-73
2024/01/04 00:30:36;;;;;;;19.80;4.63;;;9.80;99.90;;;;;;4214285;28;20056;-76
2024/01/04 00:32:38;;;;;;;19.90;3.88;;;9.80;99.90;;;;;;4214780;28;20048;-76
2024/01/04 00:34:40;;;;;;;20.17;5.43;;;9.70;99.90;;;;;;4214432;28;20410;-76
2024/01/04 00:36:43;;;;;;;23.10;4.60;;;9.70;99.90;;;;;;4214688;28;20044;-77
2024/01/04 00:38:46;;;;;;;19.13;4.38;;;9.70;99.90;;;;;;4215141;28;20040;-75
2024/01/04 00:40:48;;;;;;;26.85;5.40;;;9.70;99.90;;;;;;4218169;28;20108;-75
2024/01/04 00:42:50;;;;;;;19.55;4.57;;;9.70;99.90;;;;;;4216858;28;20052;-75
2024/01/04 00:44:53;;;;;;;21.00;5.07;;;9.70;99.90;;;;;;4198202;28;20048;-75
2024/01/04 00:46:56;;;;;;;22.20;5.70;;;9.70;99.90;;;;;;4215532;28;20449;-75
2024/01/04 00:48:58;;;;;;;16.30;4.63;;;9.70;99.90;;;;;;4214857;28;20044;-76
2024/01/04 00:51:01;;;;;;;18.58;5.32;;;9.70;99.90;;;;;;4214593;28;20134;-76
2024/01/04 00:53:03;;;;;;;23.15;4.47;;;9.70;99.90;;;;;;4215241;28;20047;-75
2024/01/04 00:55:11;;;;;;;18.70;4.22;;;9.70;99.90;;;;;;4215399;28;20048;-76
2024/01/04 00:57:13;;;;;;;19.48;4.78;;;9.70;99.90;;;;;;4219862;28;20066;-76
2024/01/04 00:59:15;;;;;;;22.27;4.35;;;9.70;99.90;;;;;;4219633;28;20071;-76
2024/01/04 01:01:18;;;;;;;19.48;4.03;;;9.60;99.90;;;;;;4216418;28;20044;-76
2024/01/04 01:03:21;;;;;;;20.92;4.28;;;9.60;99.90;;;;;;4215064;28;20388;-76
2024/01/04 01:05:23;;;;;;;17.63;4.13;;;9.60;99.90;;;;;;4214332;28;20048;-75
2024/01/04 01:07:25;;;;;;;18.52;4.35;;;9.60;99.90;;;;;;4214453;28;20453;-75
2024/01/04 01:09:28;;;;;;;20.40;5.03;;;9.60;99.90;;;;;;4215496;28;20046;-75
2024/01/04 01:11:30;;;;;;;23.67;4.70;;;9.60;99.90;;;;;;4217156;28;20083;-76
2024/01/04 01:13:32;;;;;;;24.95;5.18;;;9.60;99.90;;;;;;4215417;28;20052;-75
2024/01/04 01:15:35;;;;;;;21.10;4.57;;;9.60;99.90;;;;;;4200387;28;20498;-75
2024/01/04 01:17:38;;;;;;;24.05;6.07;;;9.60;99.90;;;;;;4200133;28;20045;-75
2024/01/04 01:19:41;;;;;;;26.45;5.47;;;9.60;99.90;;;;;;4183357;28;20500;-76
2024/01/04 01:21:43;;;;;;;23.23;5.22;;;9.60;99.90;;;;;;4202712;28;20476;-76
2024/01/04 01:23:45;;;;;;;19.50;3.92;;;9.60;99.90;;;;;;4201656;28;20122;-76
2024/01/04 01:25:48;;;;;;;24.27;5.22;;;9.60;99.90;;;;;;4202022;28;20052;-75
2024/01/04 01:27:50;;;;;;;20.42;4.40;;;9.60;99.90;;;;;;4202477;28;20090;-76
2024/01/04 01:29:52;;;;;;;20.88;4.88;;;9.60;99.90;;;;;;4201903;28;20397;-76
2024/01/04 01:31:54;;;;;;;17.77;5.68;;;9.60;99.90;;;;;;4201216;28;20113;-76
2024/01/04 01:34:00;;;;;;;26.27;4.72;;;9.60;99.90;;;;;;4201737;28;20074;-76
2024/01/04 01:36:03;;;;;;;21.27;4.15;;;9.60;99.90;;;;;;4202225;28;20475;-76
2024/01/04 01:38:05;;;;;;;17.45;4.60;;;9.60;99.90;;;;;;4200905;28;20052;-76
2024/01/04 01:40:08;;;;;;;21.88;5.35;;;9.60;99.90;;;;;;4200272;28;20131;-76
2024/01/04 01:42:10;;;;;;;19.05;4.97;;;9.60;99.90;;;;;;4199812;28;20045;-76
2024/01/04 01:44:12;;;;;;;18.48;3.83;;;9.50;99.90;;;;;;4199957;28;20048;-76
2024/01/04 01:46:14;;;;;;;19.80;4.45;;;9.50;99.90;;;;;;4199942;28;20139;-76
2024/01/04 01:48:16;;;;;;;19.30;5.28;;;9.50;99.90;;;;;;4199954;28;20127;-76
2024/01/04 01:50:21;;;;;;;22.83;5.30;;;9.50;99.90;;;;;;4199845;28;20069;-76
2024/01/04 01:52:23;;;;;;;21.02;4.43;;;9.50;99.90;;;;;;4199513;28;20564;-76
2024/01/04 01:54:27;;;;;;;22.38;4.18;;;9.50;99.90;;;;;;4182076;28;20507;-75
2024/01/04 01:56:30;;;;;;;19.88;4.45;;;9.50;99.90;;;;;;4199076;28;20128;-76
2024/01/04 01:58:34;;;;;;;22.33;4.20;;;9.50;99.90;;;;;;4199475;28;20048;-76
2024/01/04 02:00:37;;;;;;;22.75;4.22;;;9.40;99.90;;;;;;4202783;28;20050;-76
2024/01/04 02:02:42;;;;;;;19.70;4.05;;;9.40;99.90;;;;;;4216098;28;20119;-76
2024/01/04 02:04:44;;;;;;;;;;;9.40;99.90;;;;;;4216760;28;20048;-76
2024/01/04 02:06:48;;;;;;;20.35;4.15;;;9.40;99.90;;;;;;4216248;28;19942;-76
2024/01/04 02:08:50;;;;;;;24.52;5.22;;;9.40;99.90;;;;;;4216485;28;20040;-77
2024/01/04 02:10:52;;;;;;;21.60;4.20;;;9.30;99.90;;;;;;4215767;28;20055;-76
2024/01/04 02:12:54;;;;;;;16.98;4.20;;;9.30;99.90;;;;;;4216012;28;20054;-75
2024/01/04 02:14:57;;;;;;;18.52;4.28;;;9.40;99.90;;;;;;4202527;28;20062;-75
2024/01/04 02:17:00;;;;;;;22.50;4.00;;;9.40;99.90;;;;;;4181472;28;20099;-76
2024/01/04 02:19:05;;;;;;;21.02;3.90;;;9.40;99.90;;;;;;4199139;28;20046;-75
2024/01/04 02:21:09;;;;;;;;;;;9.30;99.90;;;;;;4198604;28;20100;-75
2024/01/04 02:23:15;;;;;;;18.20;3.67;;;9.30;99.90;;;;;;4199102;28;19946;-76
2024/01/04 02:25:18;;;;;;;15.43;3.72;;;9.30;99.90;;;;;;4198590;28;20079;-75
2024/01/04 02:27:20;;;;;;;19.52;3.65;;;9.30;99.90;;;;;;4199372;28;20044;-75
2024/01/04 02:29:22;;;;;;;18.10;3.55;;;9.30;99.90;;;;;;4199328;28;20063;-76
2024/01/04 02:31:24;;;;;;;15.40;3.63;;;9.30;99.90;;;;;;4199193;28;20084;-75
2024/01/04 02:33:26;;;;;;;16.52;3.97;;;9.40;99.90;;;;;;4199423;28;20427;-76
2024/01/04 02:35:28;;;;;;;20.08;3.35;;;9.30;99.90;;;;;;4199501;28;20391;-76
2024/01/04 02:37:30;;;;;;;18.45;5.20;;;9.40;99.90;;;;;;4200200;28;20424;-76
2024/01/04 02:39:34;;;;;;;21.15;5.25;;;9.30;99.90;;;;;;4199491;28;20064;-76
2024/01/04 02:41:36;;;;;;;17.15;4.07;;;9.40;99.90;;;;;;4181690;28;20100;-76
2024/01/04 02:43:38;;;;;;;19.30;5.05;;;9.40;99.90;;;;;;4199720;28;20040;-76
2024/01/04 02:45:40;;;;;;;22.17;4.60;;;9.30;99.90;;;;;;4185210;28;20498;-76
2024/01/04 02:47:42;;;;;;;18.90;3.90;;;9.30;99.90;;;;;;4184828;28;20048;-76
2024/01/04 02:49:45;;;;;;;18.60;4.25;;;9.30;99.90;;;;;;4200170;28;20040;-76
2024/01/04 02:51:49;;;;;;;19.83;4.20;;;9.40;99.90;;;;;;4199846;28;20098;-76
2024/01/04 02:53:51;;;;;;;24.92;4.78;;;9.40;99.90;;;;;;4199546;28;20058;-76
2024/01/04 02:55:56;;;;;;;18.20;4.80;;;9.40;99.90;;;;;;4198860;28;20417;-76
2024/01/04 02:57:58;;;;;;;21.45;5.40;;;9.40;99.90;;;;;;4199457;28;20040;-76
2024/01/04 03:00:00;;;;;;;17.27;4.60;;;9.40;99.90;;;;;;4199516;28;20044;-76
2024/01/04 03:02:03;;;;;;;22.60;4.85;;;9.40;99.90;;;;;;4214919;28;20050;-77
2024/01/04 03:04:05;;;;;;;18.33;5.38;;;9.40;99.90;;;;;;4216549;28;20460;-76
2024/01/04 03:06:07;;;;;;;17.50;3.75;;;9.40;99.90;;;;;;4216087;28;20044;-76
2024/01/04 03:08:09;;;;;;;17.33;3.63;;;9.50;99.90;;;;;;4216712;28;20048;-79
2024/01/04 03:10:11;;;;;;;19.83;4.53;;;9.50;99.90;;;;;;4216915;28;20135;-76
2024/01/04 03:12:14;;;;;;;19.10;4.85;;;9.50;99.90;;;;;;4216568;28;20422;-76
2024/01/04 03:14:16;;;;;;;17.42;4.45;;;9.60;99.90;;;;;;4216584;28;20106;-77
2024/01/04 03:16:22;;;;;;;17.80;4.40;;;9.60;99.90;;;;;;4216119;28;20052;-76
2024/01/04 03:18:24;;;;;;;18.40;3.95;;;9.50;99.90;;;;;;4216141;28;20047;-76
2024/01/04 03:20:26;;;;;;;20.20;3.92;;;9.50;99.90;;;;;;4218985;28;20044;-76
2024/01/04 03:22:28;;;;;;;21.92;4.32;;;9.40;99.90;;;;;;4201070;28;20072;-77
2024/01/04 03:24:32;;;;;;;24.38;4.05;;;9.40;99.90;;;;;;4217218;28;20047;-76
2024/01/04 03:26:33;;;;;;;22.08;5.43;;;9.40;99.90;;;;;;4214986;28;20511;-76
2024/01/04 03:28:37;;;;;;;20.88;4.45;;;9.30;99.90;;;;;;4216694;28;20051;-76
2024/01/04 03:30:39;;;;;;;15.38;4.80;;;9.30;99.90;;;;;;4216520;28;20048;-76
2024/01/04 03:32:41;;;;;;;17.40;4.10;;;9.40;99.90;;;;;;4216535;28;20469;-76
2024/01/04 03:34:44;;;;;;;28.77;5.32;;;9.40;99.90;;;;;;4216225;28;20455;-76
2024/01/04 03:36:46;;;;;;;22.83;4.03;;;9.40;99.90;;;;;;4215236;28;20048;-76
2024/01/04 03:38:48;;;;;;;18.17;4.35;;;9.40;99.90;;;;;;4215035;28;20067;-75
2024/01/04 03:40:50;;;;;;;20.38;4.20;;;9.50;99.90;;;;;;4215701;28;20054;-76
2024/01/04 03:42:52;;;;;;;23.27;4.43;;;9.50;99.90;;;;;;4197995;28;20143;-76
2024/01/04 03:44:56;;;;;;;20.50;4.07;;;9.60;99.90;;;;;;4199467;28;20059;-76
2024/01/04 03:46:58;;;;;;;23.85;4.60;;;9.60;99.90;;;;;;4217350;28;20055;-76
2024/01/04 03:49:00;;;;;;;20.17;3.88;;;9.60;99.90;;;;;;4198719;28;20091;-75
2024/01/04 03:51:03;;;;;;;17.77;3.80;;;9.70;99.90;;;;;;4216232;28;20048;-75
2024/01/04 03:53:06;;;;;;;18.38;3.63;;;9.60;99.90;;;;;;4216080;28;20505;-75
2024/01/04 03:55:08;;;;;;;19.80;4.75;;;9.60;99.90;;;;;;4216109;28;20044;-76
2024/01/04 03:57:11;;;;;;;19.23;4.53;;;9.60;99.90;;;;;;4216308;28;20047;-76
2024/01/04 03:59:13;;;;;;;18.45;3.85;;;9.60;99.90;;;;;;4216043;28;20059;-75
2024/01/04 04:01:16;;;;;;;19.20;4.25;;;9.60;99.90;;;;;;4216037;28;20051;-76
2024/01/04 04:03:19;;;;;;;22.75;4.63;;;9.60;99.90;;;;;;4215248;28;20044;-76
2024/01/04 04:05:21;;;;;;;19.00;3.60;;;9.50;99.90;;;;;;4215608;28;20048;-76
2024/01/04 04:07:23;;;;;;;19.48;5.13;;;9.50;99.90;;;;;;4216687;28;20048;-76
2024/01/04 04:09:26;;;;;;;21.48;4.75;;;9.50;99.90;;;;;;4218185;28;20044;-77
2024/01/04 04:11:28;;;;;;;19.05;3.75;;;9.50;99.90;;;;;;4216933;28;20054;-75
2024/01/04 04:13:32;;;;;;;24.50;4.60;;;9.50;99.90;;;;;;4198822;28;20056;-77
2024/01/04 04:15:34;;;;;;;18.67;3.70;;;9.50;99.90;;;;;;4199490;28;20142;-75
2024/01/04 04:17:37;;;;;;;26.40;4.47;;;9.50;99.90;;;;;;4199146;28;20135;-76
2024/01/04 04:19:40;;;;;;;22.23;4.22;;;9.50;99.90;;;;;;4180997;28;20091;-76
2024/01/04 04:21:42;;;;;;;21.85;4.40;;;9.60;99.90;;;;;;4198342;28;20127;-76
2024/01/04 04:23:47;;;;;;;20.13;4.47;;;9.50;99.90;;;;;;4198704;28;20048;-76
2024/01/04 04:25:49;;;;;;;19.38;4.57;;;9.50;99.90;;;;;;4198910;28;20042;-76
2024/01/04 04:27:51;;;;;;;28.20;4.85;;;9.50;99.90;;;;;;4198951;28;20388;-76
2024/01/04 04:29:53;;;;;;;17.38;3.88;;;9.50;99.90;;;;;;4198247;28;20464;-76
2024/01/04 04:31:57;;;;;;;24.23;4.75;;;9.50;99.90;;;;;;4198530;28;20077;-76
2024/01/04 04:34:00;;;;;;;20.50;4.75;;;9.40;99.90;;;;;;4203446;28;20111;-76
2024/01/04 04:36:03;;;;;;;28.58;5.18;;;9.40;99.90;;;;;;4200641;28;20083;-75
2024/01/04 04:38:05;;;;;;;23.67;5.90;;;9.40;99.90;;;;;;4199245;28;20124;-76
2024/01/04 04:40:08;;;;;;;21.92;4.70;;;9.40;99.90;;;;;;4198712;28;20048;-76
2024/01/04 04:42:14;;;;;;;25.85;5.00;;;9.40;99.90;;;;;;4198258;28;20094;-76
2024/01/04 04:44:16;;;;;;;15.50;4.30;;;9.30;99.90;;;;;;4199392;28;20041;-76
2024/01/04 04:46:18;;;;;;;19.38;3.85;;;9.30;99.90;;;;;;4201662;28;20056;-76
2024/01/04 04:48:20;;;;;;;25.77;4.03;;;9.30;99.90;;;;;;4201010;28;20128;-76
2024/01/04 04:50:24;;;;;;;20.67;4.57;;;9.30;99.90;;;;;;4201282;28;20142;-76
2024/01/04 04:52:26;;;;;;;19.30;4.70;;;9.20;99.90;;;;;;4201225;28;20196;-76
2024/01/04 04:54:28;;;;;;;20.45;4.13;;;9.20;99.90;;;;;;4201540;28;20108;-76
2024/01/04 04:56:30;;;;;;;20.70;4.65;;;9.20;99.90;;;;;;4200832;28;20054;-76
2024/01/04 04:58:35;;;;;;;21.55;4.40;;;9.20;99.90;;;;;;4201144;28;20400;-76
2024/01/04 05:00:37;;;;;;;21.02;4.97;;;9.10;99.90;;;;;;4204484;28;20042;-76
2024/01/04 05:02:39;;;;;;;19.33;4.22;;;9.10;99.90;;;;;;4217846;28;20428;-75
2024/01/04 05:04:43;;;;;;;16.20;4.10;;;9.10;99.90;;;;;;4216393;28;20048;-73
2024/01/04 05:06:47;;;;;;;17.48;3.08;;;9.10;99.90;;;;;;4217722;28;20048;-76
2024/01/04 05:08:49;;;;;;;23.70;3.85;;;9.10;99.90;;;;;;4217496;28;20048;-75
2024/01/04 05:10:52;;;;;;;24.92;4.70;;;9.00;99.90;;;;;;4217400;28;20502;-76
2024/01/04 05:12:54;;;;;;;23.42;3.85;;;9.00;99.90;;;;;;4217582;28;20483;-76
2024/01/04 05:14:56;;;;;;;21.40;4.35;;;9.00;99.90;;;;;;4203987;28;20487;-76
2024/01/04 05:16:59;;;;;;;22.40;3.90;;;9.00;99.90;;;;;;4200667;28;20457;-76
2024/01/04 05:19:01;;;;;;;24.08;4.18;;;9.00;99.90;;;;;;4202615;28;20075;-76
2024/01/04 05:21:04;;;;;;;22.52;4.90;;;9.10;99.90;;;;;;4203521;28;20048;-76
2024/01/04 05:23:07;;;;;;;20.63;4.32;;;9.00;99.90;;;;;;4201352;28;20094;-76
2024/01/04 05:25:12;;;;;;;27.20;4.32;;;9.00;99.90;;;;;;4201381;28;20040;-76
2024/01/04 05:27:14;;;;;;;22.50;4.38;;;9.10;99.90;;;;;;4200770;28;20048;-76
2024/01/04 05:29:19;;;;;;;24.25;4.30;;;9.00;99.90;;;;;;4200422;28;20045;-76
2024/01/04 05:31:21;;;;;;;28.02;5.05;;;9.00;99.90;;;;;;4200581;28;20456;-76
2024/01/04 05:33:24;;;;;;;18.30;4.20;;;9.00;99.90;;;;;;4200652;28;20060;-76
2024/01/04 05:35:27;;;;;;;21.53;4.07;;;9.00;99.90;;;;;;4200288;28;20052;-79
2024/01/04 05:37:29;;;;;;;23.55;4.85;;;9.00;99.90;;;;;;4200365;28;20127;-76
2024/01/04 05:39:32;;;;;;;20.25;4.10;;;9.00;99.90;;;;;;4200023;28;20048;-76
2024/01/04 05:41:34;;;;;;;27.08;4.20;;;9.00;99.90;;;;;;4199982;28;20495;-76
2024/01/04 05:43:36;;;;;;;23.25;4.85;;;9.00;99.90;;;;;;4200095;28;20162;-76
2024/01/04 05:45:38;;;;;;;25.73;4.00;;;9.00;99.90;;;;;;4203282;28;20108;-76
2024/01/04 05:47:40;;;;;;;25.30;4.75;;;8.90;99.90;;;;;;4186069;28;20049;-77
2024/01/04 05:49:42;;;;;;;23.20;4.53;;;8.90;99.90;;;;;;4204432;28;20055;-76
2024/01/04 05:51:44;;;;;;;26.70;4.45;;;8.90;99.90;;;;;;4186140;28;20118;-76
2024/01/04 05:53:47;;;;;;;23.48;4.47;;;8.90;99.90;;;;;;4204007;28;20403;-76
2024/01/04 05:55:51;;;;;;;24.13;4.50;;;8.90;99.90;;;;;;4204632;28;20096;-76
2024/01/04 05:57:53;;;;;;;23.80;4.75;;;8.90;99.90;;;;;;4204300;28;20453;-74
2024/01/04 05:59:57;;;;;;;24.80;5.53;;;8.90;99.90;;;;;;4205351;28;20075;-74
2024/01/04 06:02:00;;;;;;;21.25;5.20;;;8.90;99.90;;;;;;4217685;28;20040;-74
2024/01/04 06:04:02;;;;;;;33.50;6.20;;;8.90;99.90;;;;;;4219941;28;20063;-73
2024/01/04 06:06:04;;;;;;;25.45;4.60;;;8.80;99.90;;;;;;4216769;28;20044;-76
2024/01/04 06:08:07;;;;;;;21.60;4.18;;;8.80;99.90;;;;;;4198307;28;20051;-74
2024/01/04 06:10:09;;;;;;;30.05;5.05;;;8.80;99.90;;;;;;4217442;28;20050;-75
2024/01/04 06:12:13;;;;;;;23.23;5.28;;;8.80;99.90;;;;;;4201434;28;20498;-76
2024/01/04 06:14:20;;;;;;;23.23;4.72;;;8.80;99.90;;;;;;4209572;28;20047;-76
2024/01/04 06:16:26;;;;;;;20.35;4.78;;;8.80;99.90;;;;;;4200250;28;20049;-75
2024/01/04 06:18:29;;;;;;;21.35;4.53;;;8.80;99.90;;;;;;4200727;28;20492;-75
2024/01/04 06:20:32;;;;;;;27.33;4.38;;;8.80;99.90;;;;;;4201543;28;20051;-73
2024/01/04 06:22:34;;;;;;;25.67;5.15;;;8.80;99.90;;;;;;4204525;28;20048;-73
2024/01/04 06:24:36;;;;;;;29.55;5.40;;;8.80;99.90;;;;;;4199342;28;20056;-73
2024/01/04 06:26:38;;;;;;;25.98;4.97;;;8.80;99.90;;;;;;4199761;28;20048;-73
2024/01/04 06:28:43;;;;;;;18.52;3.92;;;8.80;99.90;;;;;;4182292;28;20051;-74
2024/01/04 06:30:45;;;;;;;23.55;4.57;;;8.80;99.90;;;;;;4199574;28;20067;-74
2024/01/04 06:32:48;;;;;;;28.92;4.55;;;8.80;99.90;;;;;;4199336;28;20068;-74
2024/01/04 06:34:50;;;;;;;25.10;4.55;;;8.80;99.90;;;;;;4181494;28;20511;-74
2024/01/04 06:36:52;;;;;;;27.52;5.32;;;8.80;99.90;;;;;;4199112;28;20036;-73
2024/01/04 06:38:54;;;;;;;23.42;4.53;;;8.80;99.90;;;;;;4182581;28;20152;-74
2024/01/04 06:40:58;;;;;;;24.02;4.60;;;8.90;99.90;;;;;;4200569;28;20094;-74
2024/01/04 06:43:03;;;;;;;18.95;4.70;;;8.90;99.90;;;;;;4200704;28;20132;-74
2024/01/04 06:45:07;;;;;;;17.05;3.65;;;8.90;99.90;;;;;;4200172;28;20539;-74
2024/01/04 06:47:09;;;;;;;19.90;4.40;;;8.90;99.90;;;;;;4199516;28;20064;-74
2024/01/04 06:49:12;;;;;;;19.42;3.47;;;8.90;99.90;;;;;;4200916;28;20044;-76
2024/01/04 06:51:14;;;;;;;18.75;4.30;;;8.90;99.90;;;;;;4201983;28;20045;-76
2024/01/04 06:53:16;;;;;;;18.08;4.13;;;9.00;99.90;;;;;;4202024;28;20049;-76
2024/01/04 06:55:19;;;;;;;19.98;4.75;;;9.00;99.90;;;;;;4200638;28;20053;-76
2024/01/04 06:57:21;;;;;;;16.60;4.05;;;9.10;99.90;;;;;;4200075;28;20068;-76
2024/01/04 06:59:28;;;;;;;21.20;3.95;;;9.10;99.90;;;;;;4199883;28;20056;-76
2024/01/04 07:01:31;;;;;;;25.88;3.78;;;9.10;99.90;;;;;;4210563;28;20099;-75
2024/01/04 07:03:33;;;;;;;18.88;4.35;;;9.20;99.90;;;;;;4217187;28;20078;-74
2024/01/04 07:05:37;;;;;;;26.15;4.80;;;9.20;99.90;;;;;;4216530;28;20044;-74
2024/01/04 07:07:39;;;;;;;21.85;3.92;;;9.20;99.90;;;;;;4216068;28;20356;-74
2024/01/04 07:09:41;;;;;;;17.55;3.42;;;9.20;99.90;;;;;;4197994;28;20373;-73
2024/01/04 07:11:44;;;;;;;23.98;4.50;;;9.30;99.90;;;;;;4216290;28;20052;-74
2024/01/04 07:13:46;;;;;;;20.30;3.45;;;9.20;99.90;;;;;;4216179;28;20044;-76
2024/01/04 07:15:49;;;;;;;25.17;4.25;;;9.20;99.90;;;;;;4215971;28;20059;-74
2024/01/04 07:17:53;;;;;;;19.77;4.28;;;9.30;99.90;;;;;;4218091;28;20097;-74
2024/01/04 07:19:55;;;;;;;21.65;4.38;;;9.30;99.90;;;;;;4219375;28;20052;-74
2024/01/04 07:21:57;;;;;;;21.13;4.53;;;9.20;99.90;;;;;;4217948;28;20048;-74
2024/01/04 07:24:00;;;;;;;20.75;4.60;;;9.20;99.90;;;;;;4216381;28;20048;-75
2024/01/04 07:26:06;;;;;;;18.15;3.95;;;9.20;99.90;;;;;;4197962;28;20045;-76
2024/01/04 07:28:08;;;;;;;23.00;4.32;;;9.30;99.90;;;;;;4215311;28;20550;-76
2024/01/04 07:30:11;;;;;;;20.10;4.60;;;9.20;99.90;;;;;;4215073;28;20052;-76
2024/01/04 07:32:18;;;;;;;14.40;3.92;;;9.20;99.90;;;;;;4215328;28;20423;-75
2024/01/04 07:34:21;;;;;;;23.63;4.18;;;9.20;99.90;;;;;;4215769;28;20044;-75
2024/01/04 07:36:24;;;;;;;22.90;4.57;;;9.20;99.90;;;;;;4197270;28;20124;-75
2024/01/04 07:38:26;;;;;;;17.10;3.63;;;9.20;99.90;;;;;;4197239;28;20474;-75
2024/01/04 07:40:28;;;;;;;20.80;4.53;;;9.10;99.90;;;;;;4214969;28;20178;-76
2024/01/04 07:42:30;;;;;;;18.70;3.60;;;9.10;99.90;;;;;;4197097;28;20479;-76
2024/01/04 07:44:32;;;;;;;22.20;5.28;;;9.00;99.90;;;;;;4197505;28;20143;-76
2024/01/04 07:46:34;;;;;;;25.35;4.65;;;9.00;99.90;;;;;;4214604;28;20055;-76
2024/01/04 07:48:36;;;;;;;22.08;4.40;;;8.90;99.90;;;;;;4214887;28;20543;-76
2024/01/04 07:50:40;;;;;;;23.38;4.63;;;9.00;99.90;;;;;;4214692;28;20047;-75
2024/01/04 07:52:42;;;;;;;23.00;5.03;;;8.90;99.90;;;;;;4214802;28;20044;-76
2024/01/04 07:54:44;;;;;;;20.67;4.15;;;8.90;99.90;;;;;;4214524;28;20102;-75
2024/01/04 07:56:52;;;;;;;18.73;3.97;;;8.90;99.90;;;;;;4214900;28;20051;-76
2024/01/04 07:58:54;;;;;;;29.50;5.32;;;8.90;99.90;;;;;;4214381;28;20475;-76
2024/01/04 08:00:57;;;;;;;22.83;4.43;;;8.90;99.90;;;;;;4196689;28;20491;-76
2024/01/04 08:03:01;;;;;;;39.28;5.43;;;8.90;99.90;;;;;;4197958;28;20075;-75
2024/01/04 08:05:04;;;;;;;22.63;4.93;;;8.90;99.90;;;;;;4197909;28;20474;-77
2024/01/04 08:07:07;;;;;;;21.67;4.93;;;8.90;99.90;;;;;;4180265;28;20080;-76
2024/01/04 08:09:11;;;;;;;23.75;4.55;;;8.90;99.90;;;;;;4201978;28;20049;-76
2024/01/04 08:11:13;;;;;;;22.65;4.68;;;8.80;99.90;;;;;;4202856;28;20064;-76
2024/01/04 08:13:16;;;;;;;23.48;4.07;;;8.80;99.90;;;;;;4198379;28;20479;-76
2024/01/04 08:15:18;;;;;;;29.95;5.47;;;8.80;99.90;;;;;;4214714;28;20052;-75
2024/01/04 08:17:20;;;;;;;26.90;4.65;;;8.80;99.90;;;;;;4215892;28;20384;-76
2024/01/04 08:19:22;;;;;;;27.88;5.63;;;8.80;99.90;;;;;;4217525;28;20487;-76
2024/01/04 08:21:25;;;;;;;26.60;5.18;;;8.80;99.90;;;;;;4218757;28;20491;-75
2024/01/04 08:23:28;;;;;;;27.55;4.60;;;8.70;99.90;;;;;;4218615;28;20048;-76
2024/01/04 08:25:30;;;;;;;29.20;4.63;;;8.80;99.90;;;;;;4200220;28;20052;-75
2024/01/04 08:27:32;;;;;;;29.02;5.18;;;8.80;99.90;;;;;;4217909;28;20048;-76
2024/01/04 08:29:34;;;;;;;30.55;4.80;;;8.80;99.90;;;;;;4199619;28;20052;-75
2024/01/04 08:31:36;;;;;;;25.38;4.70;;;8.70;99.90;;;;;;4217583;28;20052;-75
2024/01/04 08:33:38;;;;;;;32.80;5.35;;;8.70;99.90;;;;;;4217848;28;20056;-76
2024/01/04 08:35:41;;;;;;;24.20;5.20;;;8.80;99.90;;;;;;4199847;28;20072;-76
2024/01/04 08:37:46;;;;;;;25.92;4.50;;;8.70;99.90;;;;;;4217833;28;20067;-73
2024/01/04 08:39:50;;;;;;;29.25;5.97;;;8.80;99.90;;;;;;4217794;28;20431;-73
2024/01/04 08:41:52;;;;;;;30.60;6.15;;;8.80;99.90;;;;;;4218588;28;20552;-73
2024/01/04 08:43:56;;;;;;;24.27;4.97;;;8.80;99.90;;;;;;4218017;28;20040;-73
2024/01/04 08:45:58;;;;;;;23.90;5.45;;;8.80;99.90;;;;;;4219346;28;20048;-74
2024/01/04 08:48:00;;;;;;;27.25;5.20;;;8.80;99.90;;;;;;4219009;28;20069;-75
2024/01/04 08:50:03;;;;;;;30.75;5.20;;;8.80;99.90;;;;;;4218384;28;20048;-74
2024/01/04 08:52:06;;;;;;;34.33;6.00;;;8.90;99.90;;;;;;4219388;28;20060;-73
2024/01/04 08:54:08;;;;;;;24.25;5.03;;;8.80;99.90;;;;;;4201864;28;20530;-73
2024/01/04 08:56:13;;;;;;;33.85;5.88;;;8.90;99.90;;;;;;4219411;28;20052;-73
2024/01/04 08:58:16;;;;;;;38.15;6.10;;;8.90;99.90;;;;;;4217309;28;20048;-73
2024/01/04 09:00:19;;;;;;;26.98;5.60;;;8.90;99.90;;;;;;4217534;28;20074;-73
2024/01/04 09:02:21;;;;;;;33.10;6.50;;;8.90;99.90;;;;;;4217783;28;20066;-73
2024/01/04 09:04:24;;;;;;;29.48;5.82;;;8.90;99.90;;;;;;4199874;28;20045;-73
2024/01/04 09:06:28;;;;;;;23.50;6.13;;;9.00;99.90;;;;;;4217903;28;20386;-73
2024/01/04 09:08:31;;;;;;;34.30;6.70;;;9.00;99.90;;;;;;4216517;28;20044;-73
2024/01/04 09:10:33;;;;;;;30.00;6.07;;;9.00;99.90;;;;;;4213440;28;20098;-75
2024/01/04 09:12:39;;;;;;;31.48;6.90;;;9.00;99.90;;;;;;4209302;28;20040;-77
2024/01/04 09:14:42;;;;;;;31.05;5.85;;;9.00;99.90;;;;;;4212583;28;20040;-76
2024/01/04 09:16:46;;;;;;;32.85;6.45;;;9.00;99.90;;;;;;4214798;28;20048;-73
2024/01/04 09:18:48;;;;;;;33.88;6.22;;;9.10;99.90;;;;;;4210877;28;20407;-75
2024/01/04 09:20:50;;;;;;;39.25;6.00;;;9.20;99.90;;;;;;4213501;28;20048;-76
2024/01/04 09:22:53;;;;;;;36.03;7.13;;;9.20;99.90;;;;;;4213108;28;20123;-75
2024/01/04 09:24:55;;;;;;;30.05;5.80;;;9.20;99.90;;;;;;4220278;28;20135;-75
2024/01/04 09:26:58;;;;;;;33.35;6.18;;;9.30;99.90;;;;;;4221896;28;20055;-75
2024/01/04 09:29:01;;;;;;;35.65;7.10;;;9.30;99.90;;;;;;4219701;28;20044;-75
2024/01/04 09:31:06;;;;;;;42.30;6.93;;;9.30;99.90;;;;;;4221375;28;20052;-75
2024/01/04 09:33:09;;;;;;;34.92;6.60;;;9.30;99.90;;;;;;4220506;28;20046;-76
2024/01/04 09:35:11;;;;;;;32.88;7.60;;;9.30;99.90;;;;;;4209445;28;20131;-75
2024/01/04 09:37:13;;;;;;;32.70;5.53;;;9.30;99.90;;;;;;4219491;28;20407;-74
2024/01/04 09:39:17;;;;;;;35.78;7.05;;;9.30;99.90;;;;;;4216297;28;20080;-75
2024/01/04 09:41:25;;;;;;;32.72;6.43;;;9.30;99.90;;;;;;4215680;28;20090;-74
2024/01/04 09:43:31;;;;;;;28.60;5.95;;;9.40;99.90;;;;;;4216502;28;20493;-75
2024/01/04 09:45:38;;;;;;;27.88;5.82;;;9.40;99.90;;;;;;4205013;28;20497;-74
2024/01/04 09:47:42;;;;;;;41.85;6.78;;;9.40;99.90;;;;;;4217750;28;20063;-74
2024/01/04 09:49:45;;;;;;;38.20;6.90;;;9.40;99.90;;;;;;4221657;28;20074;-75
2024/01/04 09:51:47;;;;;;;30.50;6.32;;;9.40;99.90;;;;;;4219662;28;20052;-75
2024/01/04 09:53:51;;;;;;;42.92;6.80;;;9.40;99.90;;;;;;4222054;28;20072;-74
2024/01/04 09:55:54;;;;;;;23.58;5.97;;;9.40;99.90;;;;;;4204890;28;20061;-75
2024/01/04 09:58:03;;;;;;;33.65;6.90;;;9.50;99.90;;;;;;4204629;28;20041;-77
2024/01/04 10:00:08;;;;;;;40.42;7.22;;;9.60;99.90;;;;;;4219687;28;20052;-75
2024/01/04 10:02:13;;;;;;;34.92;6.90;;;9.60;99.90;;;;;;4220949;28;20574;-74
2024/01/04 10:04:16;;;;;;;33.15;6.43;;;9.60;99.90;;;;;;4193283;28;20049;-76
2024/01/04 10:06:24;;;;;;;35.47;6.07;;;9.60;99.90;;;;;;4219608;28;20043;-74
2024/01/04 10:08:33;;;;;;;37.75;7.43;;;9.70;99.90;;;;;;4210284;28;20051;-73
2024/01/04 10:10:40;;;;;;;35.35;7.20;;;9.80;99.90;;;;;;4214434;28;20562;-76
2024/01/04 10:12:42;;;;;;;35.85;7.40;;;10.00;99.90;;;;;;4216535;28;20483;-76
2024/01/04 10:14:45;;;;;;;33.15;7.00;;;10.00;99.90;;;;;;4213838;28;20058;-76
2024/01/04 10:16:47;;;;;;;31.52;7.00;;;10.10;99.90;;;;;;4171956;28;20120;-75
2024/01/04 10:18:53;;;;;;;33.92;6.63;;;10.20;99.90;;;;;;4210204;28;20527;-76
2024/01/04 10:21:04;;;;;;;42.95;7.35;;;10.30;99.90;;;;;;4214362;28;20060;-75
2024/01/04 10:23:09;;;;;;;40.72;6.65;;;10.40;99.90;;;;;;4210997;28;20048;-74
2024/01/04 10:25:14;;;;;;;30.77;5.47;;;10.50;99.90;;;;;;4211759;28;20067;-73
2024/01/04 10:27:16;;;;;;;35.20;6.43;;;10.60;99.90;;;;;;4189116;28;20061;-73
2024/01/04 10:29:20;;;;;;;32.05;6.15;;;10.60;99.90;;;;;;4215596;28;20068;-73
2024/01/04 10:31:23;;;;;;;34.43;7.10;;;10.60;99.90;;;;;;4197164;28;20052;-75
2024/01/04 10:33:29;;;;;;;34.78;6.53;;;10.70;99.90;;;;;;4200021;28;20404;-75
2024/01/04 10:35:33;;;;;;;33.88;6.68;;;10.70;99.90;;;;;;4210197;28;20047;-75
2024/01/04 10:37:35;;;;;;;41.97;7.78;;;10.70;99.90;;;;;;4216587;28;20102;-76
2024/01/04 10:39:37;;;;;;;29.00;6.63;;;10.50;99.90;;;;;;4214828;28;20105;-67
2024/01/04 10:41:40;;;;;;;41.17;7.75;;;10.50;99.90;;;;;;4195486;28;20045;-68